sensor_id;sensor_type;location;lat;lon;timestamp;temperature;humidity
22145;DHT22;11238;48.730;11.566;2023-07-31T00:00:31;15.30;99.90
22145;DHT22;11238;48.730;11.566;2023-07-31T00:02:57;15.00;99.90
22145;DHT22;11238;48.730;11.566;2023-07-31T00:05:23;15.00;99.90
22145;DHT22;11238;48.730;11.566;2023-07-31T00:07:48;15.00;99.90
22145;DHT22;11238;48.730;11.566;2023-07-31T00:10:14;15.00;99.90
22145;DHT22;11238;48.730;11.566;2023-07-31T00:12:42;15.00;99.90
22145;DHT22;11238;48.730;11.566;2023-07-31T00:15:09;15.10;99.90
22145;DHT22;11238;48.730;11.566;2023-07-31T00:17:35;14.90;99.90
22145;DHT22;11238;48.730;11.566;2023-07-31T00:20:02;15.00;99.90
22145;DHT22;11238;48.730;11.566;2023-07-31T00:22:28;15.00;99.90
22145;DHT22;11238;48.730;11.566;2023-07-31T00:24:54;15.00;99.90
22145;DHT22;11238;48.730;11.566;2023-07-31T00:27:19;15.00;99.90
22145;DHT22;11238;48.730;11.566;2023-07-31T00:29:45;14.90;99.90
22145;DHT22;11238;48.730;11.566;2023-07-31T00:32:11;14.90;99.90
22145;DHT22;11238;48.730;11.566;2023-07-31T00:34:37;14.90;99.90
22145;DHT22;11238;48.730;11.566;2023-07-31T00:37:04;14.80;99.90
22145;DHT22;11238;48.730;11.566;2023-07-31T00:39:30;14.80;99.90
22145;DHT22;11238;48.730;11.566;2023-07-31T00:41:56;14.80;99.90
22145;DHT22;11238;48.730;11.566;2023-07-31T00:44:22;14.80;99.90
22145;DHT22;11238;48.730;11.566;2023-07-31T00:46:48;14.80;99.90
22145;DHT22;11238;48.730;11.566;2023-07-31T00:49:15;14.90;99.90
22145;DHT22;11238;48.730;11.566;2023-07-31T00:52:03;14.90;99.90
22145;DHT22;11238;48.730;11.566;2023-07-31T00:54:29;14.90;99.90
22145;DHT22;11238;48.730;11.566;2023-07-31T00:56:55;14.80;99.90
22145;DHT22;11238;48.730;11.566;2023-07-31T00:59:21;14.70;99.90
22145;DHT22;11238;48.730;11.566;2023-07-31T01:01:47;14.70;99.90
22145;DHT22;11238;48.730;11.566;2023-07-31T01:04:13;14.80;99.90
22145;DHT22;11238;48.730;11.566;2023-07-31T01:09:52;14.80;99.90
22145;DHT22;11238;48.730;11.566;2023-07-31T01:12:23;14.80;99.90
22145;DHT22;11238;48.730;11.566;2023-07-31T01:17:26;14.80;99.90
22145;DHT22;11238;48.730;11.566;2023-07-31T01:19:54;14.70;99.90
22145;DHT22;11238;48.730;11.566;2023-07-31T01:22:47;14.80;99.90
22145;DHT22;11238;48.730;11.566;2023-07-31T01:25:52;14.70;99.90
22145;DHT22;11238;48.730;11.566;2023-07-31T01:29:36;14.70;99.90
22145;DHT22;11238;48.730;11.566;2023-07-31T01:31:29;14.70;99.90
22145;DHT22;11238;48.730;11.566;2023-07-31T01:33:59;14.60;99.90
22145;DHT22;11238;48.730;11.566;2023-07-31T01:36:25;14.60;99.90
22145;DHT22;11238;48.730;11.566;2023-07-31T01:38:52;14.40;99.90
22145;DHT22;11238;48.730;11.566;2023-07-31T01:41:18;14.30;99.90
22145;DHT22;11238;48.730;11.566;2023-07-31T01:43:47;14.20;99.90
22145;DHT22;11238;48.730;11.566;2023-07-31T01:46:13;14.30;99.90
22145;DHT22;11238;48.730;11.566;2023-07-31T01:48:39;14.30;99.90
22145;DHT22;11238;48.730;11.566;2023-07-31T01:51:08;14.40;99.90
22145;DHT22;11238;48.730;11.566;2023-07-31T01:53:35;14.40;99.90
22145;DHT22;11238;48.730;11.566;2023-07-31T01:56:01;14.30;99.90
22145;DHT22;11238;48.730;11.566;2023-07-31T01:58:27;14.30;99.90
22145;DHT22;11238;48.730;11.566;2023-07-31T02:00:53;14.30;99.90
22145;DHT22;11238;48.730;11.566;2023-07-31T02:03:19;14.30;99.90
22145;DHT22;11238;48.730;11.566;2023-07-31T02:05:49;14.20;99.90
22145;DHT22;11238;48.730;11.566;2023-07-31T02:08:15;14.30;99.90
22145;DHT22;11238;48.730;11.566;2023-07-31T02:10:42;14.20;99.90
22145;DHT22;11238;48.730;11.566;2023-07-31T02:13:08;14.10;99.90
22145;DHT22;11238;48.730;11.566;2023-07-31T02:15:34;14.10;99.90
22145;DHT22;11238;48.730;11.566;2023-07-31T02:18:01;14.10;99.90
22145;DHT22;11238;48.730;11.566;2023-07-31T02:20:27;14.10;99.90
22145;DHT22;11238;48.730;11.566;2023-07-31T02:22:53;14.10;99.90
22145;DHT22;11238;48.730;11.566;2023-07-31T02:25:18;14.00;99.90
22145;DHT22;11238;48.730;11.566;2023-07-31T02:27:44;13.90;99.90
22145;DHT22;11238;48.730;11.566;2023-07-31T02:30:11;13.90;99.90
22145;DHT22;11238;48.730;11.566;2023-07-31T02:32:37;13.90;99.90
22145;DHT22;11238;48.730;11.566;2023-07-31T02:35:03;13.90;99.90
22145;DHT22;11238;48.730;11.566;2023-07-31T02:37:29;13.90;99.90
22145;DHT22;11238;48.730;11.566;2023-07-31T02:39:55;13.80;99.90
22145;DHT22;11238;48.730;11.566;2023-07-31T02:42:21;13.80;99.90
22145;DHT22;11238;48.730;11.566;2023-07-31T02:44:46;13.80;99.90
22145;DHT22;11238;48.730;11.566;2023-07-31T02:47:12;13.80;99.90
22145;DHT22;11238;48.730;11.566;2023-07-31T02:49:38;13.70;99.90
22145;DHT22;11238;48.730;11.566;2023-07-31T02:52:04;13.70;99.90
22145;DHT22;11238;48.730;11.566;2023-07-31T02:54:30;13.70;99.90
22145;DHT22;11238;48.730;11.566;2023-07-31T02:56:56;13.70;99.90
22145;DHT22;11238;48.730;11.566;2023-07-31T02:59:22;13.70;99.90
22145;DHT22;11238;48.730;11.566;2023-07-31T03:01:48;13.70;99.90
22145;DHT22;11238;48.730;11.566;2023-07-31T03:04:14;13.60;99.90
22145;DHT22;11238;48.730;11.566;2023-07-31T03:06:40;13.60;99.90
22145;DHT22;11238;48.730;11.566;2023-07-31T03:09:06;13.60;99.90
22145;DHT22;11238;48.730;11.566;2023-07-31T03:11:31;13.60;99.90
22145;DHT22;11238;48.730;11.566;2023-07-31T03:13:57;13.60;99.90
22145;DHT22;11238;48.730;11.566;2023-07-31T03:16:23;13.60;99.90
22145;DHT22;11238;48.730;11.566;2023-07-31T03:18:49;13.50;99.90
22145;DHT22;11238;48.730;11.566;2023-07-31T03:21:14;13.50;99.90
22145;DHT22;11238;48.730;11.566;2023-07-31T03:23:40;13.30;99.90
22145;DHT22;11238;48.730;11.566;2023-07-31T03:26:07;13.30;99.90
22145;DHT22;11238;48.730;11.566;2023-07-31T03:28:33;13.10;99.90
22145;DHT22;11238;48.730;11.566;2023-07-31T03:30:59;13.20;99.90
22145;DHT22;11238;48.730;11.566;2023-07-31T03:33:25;13.20;99.90
22145;DHT22;11238;48.730;11.566;2023-07-31T03:35:52;13.30;99.90
22145;DHT22;11238;48.730;11.566;2023-07-31T03:38:18;13.20;99.90
22145;DHT22;11238;48.730;11.566;2023-07-31T03:40:44;13.30;99.90
22145;DHT22;11238;48.730;11.566;2023-07-31T03:43:10;13.30;99.90
22145;DHT22;11238;48.730;11.566;2023-07-31T03:45:38;13.10;99.90
22145;DHT22;11238;48.730;11.566;2023-07-31T03:48:05;13.10;99.90
22145;DHT22;11238;48.730;11.566;2023-07-31T03:50:31;13.20;99.90
22145;DHT22;11238;48.730;11.566;2023-07-31T03:53:00;12.90;99.90
22145;DHT22;11238;48.730;11.566;2023-07-31T03:55:26;13.00;99.90
22145;DHT22;11238;48.730;11.566;2023-07-31T03:57:51;13.00;99.90
22145;DHT22;11238;48.730;11.566;2023-07-31T04:00:17;13.00;99.90
22145;DHT22;11238;48.730;11.566;2023-07-31T04:02:43;13.10;99.90
22145;DHT22;11238;48.730;11.566;2023-07-31T04:05:09;13.10;99.90
22145;DHT22;11238;48.730;11.566;2023-07-31T04:07:36;13.10;99.90
22145;DHT22;11238;48.730;11.566;2023-07-31T04:10:03;13.10;99.90
22145;DHT22;11238;48.730;11.566;2023-07-31T04:12:28;12.90;99.90
22145;DHT22;11238;48.730;11.566;2023-07-31T04:14:54;12.90;99.90
22145;DHT22;11238;48.730;11.566;2023-07-31T04:17:20;13.00;99.90
22145;DHT22;11238;48.730;11.566;2023-07-31T04:19:46;13.00;99.90
22145;DHT22;11238;48.730;11.566;2023-07-31T04:22:12;13.00;99.90
22145;DHT22;11238;48.730;11.566;2023-07-31T04:24:38;13.00;99.90
22145;DHT22;11238;48.730;11.566;2023-07-31T04:27:04;13.00;99.90
22145;DHT22;11238;48.730;11.566;2023-07-31T04:29:30;13.10;99.90
22145;DHT22;11238;48.730;11.566;2023-07-31T04:31:56;13.10;99.90
22145;DHT22;11238;48.730;11.566;2023-07-31T04:34:22;13.10;99.90
22145;DHT22;11238;48.730;11.566;2023-07-31T04:36:47;13.20;99.90
22145;DHT22;11238;48.730;11.566;2023-07-31T04:39:13;13.20;99.90
22145;DHT22;11238;48.730;11.566;2023-07-31T04:41:39;13.20;99.90
22145;DHT22;11238;48.730;11.566;2023-07-31T04:44:05;13.10;99.90
22145;DHT22;11238;48.730;11.566;2023-07-31T04:46:31;13.10;99.90
22145;DHT22;11238;48.730;11.566;2023-07-31T04:48:56;13.10;99.90
22145;DHT22;11238;48.730;11.566;2023-07-31T04:51:22;13.10;99.90
22145;DHT22;11238;48.730;11.566;2023-07-31T04:53:49;13.10;99.90
22145;DHT22;11238;48.730;11.566;2023-07-31T04:56:15;13.10;99.90
22145;DHT22;11238;48.730;11.566;2023-07-31T04:58:42;13.10;99.90
22145;DHT22;11238;48.730;11.566;2023-07-31T05:01:08;13.20;99.90
22145;DHT22;11238;48.730;11.566;2023-07-31T05:03:34;13.30;99.90
22145;DHT22;11238;48.730;11.566;2023-07-31T05:06:00;13.50;99.90
22145;DHT22;11238;48.730;11.566;2023-07-31T05:08:25;13.60;99.90
22145;DHT22;11238;48.730;11.566;2023-07-31T05:10:51;13.80;99.90
22145;DHT22;11238;48.730;11.566;2023-07-31T05:13:17;13.80;99.90
22145;DHT22;11238;48.730;11.566;2023-07-31T05:15:43;14.00;99.90
22145;DHT22;11238;48.730;11.566;2023-07-31T05:18:09;14.10;99.90
22145;DHT22;11238;48.730;11.566;2023-07-31T05:20:35;14.30;99.90
22145;DHT22;11238;48.730;11.566;2023-07-31T05:23:01;14.30;99.90
22145;DHT22;11238;48.730;11.566;2023-07-31T05:25:27;14.40;99.90
22145;DHT22;11238;48.730;11.566;2023-07-31T05:27:52;14.50;99.90
22145;DHT22;11238;48.730;11.566;2023-07-31T05:30:18;14.70;99.90
22145;DHT22;11238;48.730;11.566;2023-07-31T05:32:44;14.80;99.90
22145;DHT22;11238;48.730;11.566;2023-07-31T05:35:10;14.80;99.90
22145;DHT22;11238;48.730;11.566;2023-07-31T05:37:36;14.90;99.90
22145;DHT22;11238;48.730;11.566;2023-07-31T05:40:02;14.90;99.90
22145;DHT22;11238;48.730;11.566;2023-07-31T05:42:28;15.10;99.90
22145;DHT22;11238;48.730;11.566;2023-07-31T05:44:54;15.30;99.90
22145;DHT22;11238;48.730;11.566;2023-07-31T05:47:20;15.20;99.90
22145;DHT22;11238;48.730;11.566;2023-07-31T05:49:46;15.40;99.90
22145;DHT22;11238;48.730;11.566;2023-07-31T05:52:11;15.50;99.90
22145;DHT22;11238;48.730;11.566;2023-07-31T05:54:37;15.60;99.90
22145;DHT22;11238;48.730;11.566;2023-07-31T05:57:03;15.70;99.90
22145;DHT22;11238;48.730;11.566;2023-07-31T05:59:28;15.90;99.90
22145;DHT22;11238;48.730;11.566;2023-07-31T06:01:55;16.10;99.90
22145;DHT22;11238;48.730;11.566;2023-07-31T06:04:21;16.10;99.90
22145;DHT22;11238;48.730;11.566;2023-07-31T06:06:47;16.30;99.90
22145;DHT22;11238;48.730;11.566;2023-07-31T06:09:12;16.50;99.90
22145;DHT22;11238;48.730;11.566;2023-07-31T06:11:40;16.60;99.90
22145;DHT22;11238;48.730;11.566;2023-07-31T06:14:05;16.80;99.90
22145;DHT22;11238;48.730;11.566;2023-07-31T06:16:31;16.90;99.90
22145;DHT22;11238;48.730;11.566;2023-07-31T06:18:57;16.90;99.90
22145;DHT22;11238;48.730;11.566;2023-07-31T06:21:23;16.80;99.90
22145;DHT22;11238;48.730;11.566;2023-07-31T06:23:48;16.70;99.90
22145;DHT22;11238;48.730;11.566;2023-07-31T06:26:14;16.70;99.90
22145;DHT22;11238;48.730;11.566;2023-07-31T06:28:43;16.80;99.90
22145;DHT22;11238;48.730;11.566;2023-07-31T06:31:09;16.80;99.90
22145;DHT22;11238;48.730;11.566;2023-07-31T06:33:34;16.80;99.90
22145;DHT22;11238;48.730;11.566;2023-07-31T06:36:00;16.80;99.90
22145;DHT22;11238;48.730;11.566;2023-07-31T06:38:27;16.80;99.90
22145;DHT22;11238;48.730;11.566;2023-07-31T06:40:53;16.90;99.90
22145;DHT22;11238;48.730;11.566;2023-07-31T06:43:19;16.90;99.90
22145;DHT22;11238;48.730;11.566;2023-07-31T06:45:45;16.90;99.90
22145;DHT22;11238;48.730;11.566;2023-07-31T06:48:12;17.00;99.90
22145;DHT22;11238;48.730;11.566;2023-07-31T06:50:37;17.00;99.90
22145;DHT22;11238;48.730;11.566;2023-07-31T06:53:04;17.00;99.90
22145;DHT22;11238;48.730;11.566;2023-07-31T06:55:29;17.10;99.90
22145;DHT22;11238;48.730;11.566;2023-07-31T06:57:56;17.10;99.90
22145;DHT22;11238;48.730;11.566;2023-07-31T07:00:23;17.20;99.90
22145;DHT22;11238;48.730;11.566;2023-07-31T07:02:50;17.20;99.90
22145;DHT22;11238;48.730;11.566;2023-07-31T07:05:17;17.20;99.90
22145;DHT22;11238;48.730;11.566;2023-07-31T07:07:43;17.30;99.90
22145;DHT22;11238;48.730;11.566;2023-07-31T07:10:10;17.30;99.90
22145;DHT22;11238;48.730;11.566;2023-07-31T07:12:36;17.40;99.90
22145;DHT22;11238;48.730;11.566;2023-07-31T07:15:02;17.40;99.90
22145;DHT22;11238;48.730;11.566;2023-07-31T07:17:29;17.50;99.90
22145;DHT22;11238;48.730;11.566;2023-07-31T07:19:59;17.60;99.90
22145;DHT22;11238;48.730;11.566;2023-07-31T07:22:25;17.60;99.90
22145;DHT22;11238;48.730;11.566;2023-07-31T07:24:53;17.70;99.90
22145;DHT22;11238;48.730;11.566;2023-07-31T07:27:18;17.70;99.90
22145;DHT22;11238;48.730;11.566;2023-07-31T07:29:46;17.70;99.90
22145;DHT22;11238;48.730;11.566;2023-07-31T07:32:12;17.80;99.90
22145;DHT22;11238;48.730;11.566;2023-07-31T07:34:38;17.90;99.90
22145;DHT22;11238;48.730;11.566;2023-07-31T07:37:05;18.00;99.90
22145;DHT22;11238;48.730;11.566;2023-07-31T07:39:31;18.00;99.90
22145;DHT22;11238;48.730;11.566;2023-07-31T07:41:57;18.00;99.90
22145;DHT22;11238;48.730;11.566;2023-07-31T07:44:22;18.10;99.90
22145;DHT22;11238;48.730;11.566;2023-07-31T07:46:52;18.20;99.90
22145;DHT22;11238;48.730;11.566;2023-07-31T07:49:18;18.30;99.90
22145;DHT22;11238;48.730;11.566;2023-07-31T07:51:44;18.40;99.90
22145;DHT22;11238;48.730;11.566;2023-07-31T07:54:10;18.60;99.90
22145;DHT22;11238;48.730;11.566;2023-07-31T07:56:36;18.70;99.90
22145;DHT22;11238;48.730;11.566;2023-07-31T07:59:01;18.80;99.90
22145;DHT22;11238;48.730;11.566;2023-07-31T08:01:27;18.90;99.90
22145;DHT22;11238;48.730;11.566;2023-07-31T08:03:53;19.00;99.90
22145;DHT22;11238;48.730;11.566;2023-07-31T08:06:19;19.10;99.90
22145;DHT22;11238;48.730;11.566;2023-07-31T08:08:45;19.20;99.90
22145;DHT22;11238;48.730;11.566;2023-07-31T08:11:10;19.20;99.90
22145;DHT22;11238;48.730;11.566;2023-07-31T08:13:36;19.30;99.90
22145;DHT22;11238;48.730;11.566;2023-07-31T08:16:04;19.30;99.90
22145;DHT22;11238;48.730;11.566;2023-07-31T08:18:32;19.40;99.90
22145;DHT22;11238;48.730;11.566;2023-07-31T08:20:58;19.40;99.90
22145;DHT22;11238;48.730;11.566;2023-07-31T08:23:24;19.50;99.90
22145;DHT22;11238;48.730;11.566;2023-07-31T08:25:50;19.60;99.90
22145;DHT22;11238;48.730;11.566;2023-07-31T08:28:16;19.60;99.90
22145;DHT22;11238;48.730;11.566;2023-07-31T08:30:42;19.60;99.90
22145;DHT22;11238;48.730;11.566;2023-07-31T08:33:08;19.60;99.90
22145;DHT22;11238;48.730;11.566;2023-07-31T08:35:34;19.60;99.90
22145;DHT22;11238;48.730;11.566;2023-07-31T08:38:00;19.70;99.90
22145;DHT22;11238;48.730;11.566;2023-07-31T08:40:25;19.80;99.90
22145;DHT22;11238;48.730;11.566;2023-07-31T08:42:54;19.90;99.90
22145;DHT22;11238;48.730;11.566;2023-07-31T08:45:22;19.80;99.90
22145;DHT22;11238;48.730;11.566;2023-07-31T08:47:50;19.90;99.90
22145;DHT22;11238;48.730;11.566;2023-07-31T08:50:18;19.90;99.90
22145;DHT22;11238;48.730;11.566;2023-07-31T08:52:49;20.00;99.90
22145;DHT22;11238;48.730;11.566;2023-07-31T08:55:16;19.90;99.90
22145;DHT22;11238;48.730;11.566;2023-07-31T08:57:43;19.90;99.90
22145;DHT22;11238;48.730;11.566;2023-07-31T09:00:10;20.00;99.90
22145;DHT22;11238;48.730;11.566;2023-07-31T09:02:51;20.00;99.90
22145;DHT22;11238;48.730;11.566;2023-07-31T09:05:17;19.90;99.90
22145;DHT22;11238;48.730;11.566;2023-07-31T09:07:47;19.90;99.90
22145;DHT22;11238;48.730;11.566;2023-07-31T09:10:14;19.80;99.90
22145;DHT22;11238;48.730;11.566;2023-07-31T09:12:40;19.80;99.90
22145;DHT22;11238;48.730;11.566;2023-07-31T09:15:06;19.90;99.90
22145;DHT22;11238;48.730;11.566;2023-07-31T09:17:33;19.90;99.90
22145;DHT22;11238;48.730;11.566;2023-07-31T09:20:19;20.00;99.80
22145;DHT22;11238;48.730;11.566;2023-07-31T09:22:46;20.00;98.70
22145;DHT22;11238;48.730;11.566;2023-07-31T09:27:57;20.00;99.70
22145;DHT22;11238;48.730;11.566;2023-07-31T09:30:24;20.10;99.90
22145;DHT22;11238;48.730;11.566;2023-07-31T09:32:52;20.10;99.90
22145;DHT22;11238;48.730;11.566;2023-07-31T09:35:29;20.00;99.90
22145;DHT22;11238;48.730;11.566;2023-07-31T09:38:05;20.10;99.80
22145;DHT22;11238;48.730;11.566;2023-07-31T09:40:39;20.20;99.20
22145;DHT22;11238;48.730;11.566;2023-07-31T09:43:07;20.40;99.90
22145;DHT22;11238;48.730;11.566;2023-07-31T09:45:35;20.50;99.70
22145;DHT22;11238;48.730;11.566;2023-07-31T09:48:12;20.60;99.70
22145;DHT22;11238;48.730;11.566;2023-07-31T09:50:39;20.80;99.10
22145;DHT22;11238;48.730;11.566;2023-07-31T09:53:06;20.90;99.90
22145;DHT22;11238;48.730;11.566;2023-07-31T09:55:32;21.00;99.20
22145;DHT22;11238;48.730;11.566;2023-07-31T09:57:59;21.00;98.90
22145;DHT22;11238;48.730;11.566;2023-07-31T10:00:30;21.10;98.90
22145;DHT22;11238;48.730;11.566;2023-07-31T10:02:59;21.10;98.70
22145;DHT22;11238;48.730;11.566;2023-07-31T10:05:34;21.10;99.00
22145;DHT22;11238;48.730;11.566;2023-07-31T10:08:00;21.20;97.50
22145;DHT22;11238;48.730;11.566;2023-07-31T10:10:27;21.30;97.40
22145;DHT22;11238;48.730;11.566;2023-07-31T10:12:54;21.40;98.50
22145;DHT22;11238;48.730;11.566;2023-07-31T10:15:22;21.60;98.10
22145;DHT22;11238;48.730;11.566;2023-07-31T10:17:49;21.70;97.10
22145;DHT22;11238;48.730;11.566;2023-07-31T10:20:16;21.70;95.90
22145;DHT22;11238;48.730;11.566;2023-07-31T10:22:46;21.60;95.90
22145;DHT22;11238;48.730;11.566;2023-07-31T10:25:12;21.60;96.00
22145;DHT22;11238;48.730;11.566;2023-07-31T10:27:41;21.60;96.60
22145;DHT22;11238;48.730;11.566;2023-07-31T10:30:18;21.50;96.20
22145;DHT22;11238;48.730;11.566;2023-07-31T10:32:46;21.30;96.30
22145;DHT22;11238;48.730;11.566;2023-07-31T10:35:15;21.30;95.50
22145;DHT22;11238;48.730;11.566;2023-07-31T10:37:42;21.30;96.30
22145;DHT22;11238;48.730;11.566;2023-07-31T10:40:13;21.40;96.00
22145;DHT22;11238;48.730;11.566;2023-07-31T10:42:57;21.50;96.30
22145;DHT22;11238;48.730;11.566;2023-07-31T10:45:43;21.50;95.20
22145;DHT22;11238;48.730;11.566;2023-07-31T10:48:14;21.70;94.50
22145;DHT22;11238;48.730;11.566;2023-07-31T10:50:51;21.60;94.10
22145;DHT22;11238;48.730;11.566;2023-07-31T10:53:39;21.70;94.60
22145;DHT22;11238;48.730;11.566;2023-07-31T10:56:08;21.60;93.60
22145;DHT22;11238;48.730;11.566;2023-07-31T10:58:34;21.60;94.40
22145;DHT22;11238;48.730;11.566;2023-07-31T11:01:02;21.50;92.60
22145;DHT22;11238;48.730;11.566;2023-07-31T11:03:44;21.50;94.30
22145;DHT22;11238;48.730;11.566;2023-07-31T11:06:10;21.50;93.50
22145;DHT22;11238;48.730;11.566;2023-07-31T11:08:42;21.50;93.40
22145;DHT22;11238;48.730;11.566;2023-07-31T11:11:13;21.80;94.20
22145;DHT22;11238;48.730;11.566;2023-07-31T11:13:52;22.00;92.40
22145;DHT22;11238;48.730;11.566;2023-07-31T11:16:20;21.90;92.30
22145;DHT22;11238;48.730;11.566;2023-07-31T11:18:47;22.10;92.00
22145;DHT22;11238;48.730;11.566;2023-07-31T11:21:15;22.10;91.50
22145;DHT22;11238;48.730;11.566;2023-07-31T11:23:46;22.10;89.40
22145;DHT22;11238;48.730;11.566;2023-07-31T11:26:12;22.20;90.90
22145;DHT22;11238;48.730;11.566;2023-07-31T11:28:38;22.10;91.00
22145;DHT22;11238;48.730;11.566;2023-07-31T11:31:04;22.20;91.00
22145;DHT22;11238;48.730;11.566;2023-07-31T11:33:30;22.40;91.00
22145;DHT22;11238;48.730;11.566;2023-07-31T11:35:56;22.50;90.70
22145;DHT22;11238;48.730;11.566;2023-07-31T11:38:27;22.70;90.90
22145;DHT22;11238;48.730;11.566;2023-07-31T11:40:55;23.00;91.90
22145;DHT22;11238;48.730;11.566;2023-07-31T11:43:21;23.40;90.60
22145;DHT22;11238;48.730;11.566;2023-07-31T11:46:05;23.50;90.30
22145;DHT22;11238;48.730;11.566;2023-07-31T11:48:34;23.50;89.00
22145;DHT22;11238;48.730;11.566;2023-07-31T11:51:23;23.40;87.00
22145;DHT22;11238;48.730;11.566;2023-07-31T11:53:52;23.10;86.50
22145;DHT22;11238;48.730;11.566;2023-07-31T11:56:21;22.90;86.50
22145;DHT22;11238;48.730;11.566;2023-07-31T11:58:52;22.90;87.50
22145;DHT22;11238;48.730;11.566;2023-07-31T12:01:20;23.00;89.50
22145;DHT22;11238;48.730;11.566;2023-07-31T12:03:47;23.30;89.20
22145;DHT22;11238;48.730;11.566;2023-07-31T12:06:13;23.50;86.10
22145;DHT22;11238;48.730;11.566;2023-07-31T12:08:38;23.60;86.50
22145;DHT22;11238;48.730;11.566;2023-07-31T12:11:06;23.70;84.70
22145;DHT22;11238;48.730;11.566;2023-07-31T12:13:33;23.80;86.30
22145;DHT22;11238;48.730;11.566;2023-07-31T12:16:00;23.80;85.30
22145;DHT22;11238;48.730;11.566;2023-07-31T12:18:33;24.10;85.60
22145;DHT22;11238;48.730;11.566;2023-07-31T12:21:01;24.10;89.40
22145;DHT22;11238;48.730;11.566;2023-07-31T12:23:30;24.10;88.00
22145;DHT22;11238;48.730;11.566;2023-07-31T12:26:11;23.90;84.60
22145;DHT22;11238;48.730;11.566;2023-07-31T12:31:12;23.70;85.80
22145;DHT22;11238;48.730;11.566;2023-07-31T12:33:39;23.70;85.80
22145;DHT22;11238;48.730;11.566;2023-07-31T12:36:11;23.80;86.20
22145;DHT22;11238;48.730;11.566;2023-07-31T12:38:37;24.10;86.10
22145;DHT22;11238;48.730;11.566;2023-07-31T12:41:03;24.30;85.60
22145;DHT22;11238;48.730;11.566;2023-07-31T12:43:29;24.20;83.90
22145;DHT22;11238;48.730;11.566;2023-07-31T12:45:55;24.40;87.60
22145;DHT22;11238;48.730;11.566;2023-07-31T12:48:22;24.60;84.00
22145;DHT22;11238;48.730;11.566;2023-07-31T12:50:48;24.50;82.10
22145;DHT22;11238;48.730;11.566;2023-07-31T12:53:15;24.70;83.60
22145;DHT22;11238;48.730;11.566;2023-07-31T12:55:40;24.80;81.60
22145;DHT22;11238;48.730;11.566;2023-07-31T12:58:07;24.70;81.60
22145;DHT22;11238;48.730;11.566;2023-07-31T13:00:33;24.70;82.80
22145;DHT22;11238;48.730;11.566;2023-07-31T13:02:59;24.70;81.70
22145;DHT22;11238;48.730;11.566;2023-07-31T13:05:26;24.70;80.10
22145;DHT22;11238;48.730;11.566;2023-07-31T13:07:53;24.70;79.60
22145;DHT22;11238;48.730;11.566;2023-07-31T13:10:19;25.00;82.50
22145;DHT22;11238;48.730;11.566;2023-07-31T13:12:45;25.30;81.90
22145;DHT22;11238;48.730;11.566;2023-07-31T13:15:12;25.30;80.90
22145;DHT22;11238;48.730;11.566;2023-07-31T13:17:40;25.20;80.50
22145;DHT22;11238;48.730;11.566;2023-07-31T13:20:06;24.90;82.00
22145;DHT22;11238;48.730;11.566;2023-07-31T13:22:32;25.10;81.10
22145;DHT22;11238;48.730;11.566;2023-07-31T13:25:00;25.30;79.10
22145;DHT22;11238;48.730;11.566;2023-07-31T13:27:26;25.40;79.50
22145;DHT22;11238;48.730;11.566;2023-07-31T13:29:53;25.60;79.30
22145;DHT22;11238;48.730;11.566;2023-07-31T13:32:19;25.80;79.00
22145;DHT22;11238;48.730;11.566;2023-07-31T13:34:46;25.70;79.30
22145;DHT22;11238;48.730;11.566;2023-07-31T13:37:13;25.50;79.60
22145;DHT22;11238;48.730;11.566;2023-07-31T13:39:39;25.60;79.00
22145;DHT22;11238;48.730;11.566;2023-07-31T13:42:06;25.50;77.80
22145;DHT22;11238;48.730;11.566;2023-07-31T13:44:37;25.30;78.40
22145;DHT22;11238;48.730;11.566;2023-07-31T13:47:04;25.20;80.30
22145;DHT22;11238;48.730;11.566;2023-07-31T13:49:30;25.30;80.10
22145;DHT22;11238;48.730;11.566;2023-07-31T13:51:58;25.20;77.20
22145;DHT22;11238;48.730;11.566;2023-07-31T13:54:25;25.20;77.90
22145;DHT22;11238;48.730;11.566;2023-07-31T13:56:52;25.30;80.00
22145;DHT22;11238;48.730;11.566;2023-07-31T13:59:18;25.50;81.30
22145;DHT22;11238;48.730;11.566;2023-07-31T14:01:44;25.70;78.30
22145;DHT22;11238;48.730;11.566;2023-07-31T14:04:10;25.90;76.20
22145;DHT22;11238;48.730;11.566;2023-07-31T14:06:36;26.10;78.50
22145;DHT22;11238;48.730;11.566;2023-07-31T14:09:02;26.10;75.00
22145;DHT22;11238;48.730;11.566;2023-07-31T14:11:30;26.10;78.00
22145;DHT22;11238;48.730;11.566;2023-07-31T14:13:56;26.20;78.10
22145;DHT22;11238;48.730;11.566;2023-07-31T14:16:22;26.10;76.60
22145;DHT22;11238;48.730;11.566;2023-07-31T14:18:48;26.30;77.20
22145;DHT22;11238;48.730;11.566;2023-07-31T14:21:16;26.40;76.60
22145;DHT22;11238;48.730;11.566;2023-07-31T14:23:45;26.50;75.90
22145;DHT22;11238;48.730;11.566;2023-07-31T14:26:11;26.30;74.40
22145;DHT22;11238;48.730;11.566;2023-07-31T14:28:36;26.10;74.90
22145;DHT22;11238;48.730;11.566;2023-07-31T14:31:02;25.80;75.50
22145;DHT22;11238;48.730;11.566;2023-07-31T14:33:28;25.70;76.20
22145;DHT22;11238;48.730;11.566;2023-07-31T14:35:54;25.70;75.70
22145;DHT22;11238;48.730;11.566;2023-07-31T14:38:20;25.70;76.80
22145;DHT22;11238;48.730;11.566;2023-07-31T14:40:46;25.60;75.40
22145;DHT22;11238;48.730;11.566;2023-07-31T14:43:11;25.60;75.10
22145;DHT22;11238;48.730;11.566;2023-07-31T14:45:37;25.50;73.20
22145;DHT22;11238;48.730;11.566;2023-07-31T14:48:04;25.30;73.70
22145;DHT22;11238;48.730;11.566;2023-07-31T14:50:29;25.10;74.50
22145;DHT22;11238;48.730;11.566;2023-07-31T14:52:55;24.90;73.60
22145;DHT22;11238;48.730;11.566;2023-07-31T14:55:21;24.80;73.90
22145;DHT22;11238;48.730;11.566;2023-07-31T14:57:47;24.60;75.40
22145;DHT22;11238;48.730;11.566;2023-07-31T15:00:13;24.60;77.00
22145;DHT22;11238;48.730;11.566;2023-07-31T15:02:40;24.60;76.10
22145;DHT22;11238;48.730;11.566;2023-07-31T15:05:07;24.50;74.70
22145;DHT22;11238;48.730;11.566;2023-07-31T15:07:33;24.50;76.00
22145;DHT22;11238;48.730;11.566;2023-07-31T15:09:59;24.50;75.50
22145;DHT22;11238;48.730;11.566;2023-07-31T15:12:26;24.50;75.90
22145;DHT22;11238;48.730;11.566;2023-07-31T15:14:51;24.50;75.60
22145;DHT22;11238;48.730;11.566;2023-07-31T15:17:18;24.50;76.10
22145;DHT22;11238;48.730;11.566;2023-07-31T15:19:44;24.40;75.60
22145;DHT22;11238;48.730;11.566;2023-07-31T15:22:10;24.40;77.60
22145;DHT22;11238;48.730;11.566;2023-07-31T15:24:36;24.30;78.70
22145;DHT22;11238;48.730;11.566;2023-07-31T15:27:02;24.30;76.60